Beaver Creek, North Carolina
Current Conditions -  °F | °C
As of 11:35 AM on Sunday 21 Dec 2014 (Local Time) from KGEV Reporting Station
Overcast Overcast  
Wind Chill: 40°   Ceiling: 2100
Heat Index: 40°   Visibility: 10mi
Dew Point: 31°   Wind: 3mph
Humidity: 70%   Direction: 170°S
Pressure: 30.19"   Gusts: NA
Location:  36.358°N, 81.4709°W
Report Text: KGEV 211635Z AUTO 17003KT 10SM OVC021 05/00 A3019 RMK AO2 T00471003
Loading
Personal Weather Stations






























Interactive Weather Map New forecast layout! Learn more

10-Day Weather Forecast

Advertisements
Track Severe Weather on mobile